sensor_id;sensor_type;location;lat;lon;timestamp;pressure;altitude;pressure_sealevel;temperature;humidity
3444;BME280;1736;52.068;6.968;2023-05-23T00:02:13;101108.84;;;15.10;92.52
3444;BME280;1736;52.068;6.968;2023-05-23T00:04:40;101106.69;;;14.96;93.53
3444;BME280;1736;52.068;6.968;2023-05-23T00:07:08;101108.63;;;14.94;93.68
3444;BME280;1736;52.068;6.968;2023-05-23T00:09:35;101100.63;;;14.94;93.94
3444;BME280;1736;52.068;6.968;2023-05-23T00:12:01;101100.72;;;15.02;93.55
3444;BME280;1736;52.068;6.968;2023-05-23T00:14:29;101108.06;;;15.00;94.08
3444;BME280;1736;52.068;6.968;2023-05-23T00:16:58;101099.16;;;15.09;94.05
3444;BME280;1736;52.068;6.968;2023-05-23T00:19:25;101105.13;;;15.03;93.94
3444;BME280;1736;52.068;6.968;2023-05-23T00:21:52;101095.41;;;14.92;94.55
3444;BME280;1736;52.068;6.968;2023-05-23T00:24:22;101096.66;;;14.98;94.41
3444;BME280;1736;52.068;6.968;2023-05-23T00:26:49;101101.34;;;14.96;94.85
3444;BME280;1736;52.068;6.968;2023-05-23T00:29:16;101101.19;;;14.97;95.16
3444;BME280;1736;52.068;6.968;2023-05-23T00:31:44;101099.94;;;14.92;95.66
3444;BME280;1736;52.068;6.968;2023-05-23T00:34:11;101101.91;;;14.90;96.26
3444;BME280;1736;52.068;6.968;2023-05-23T00:36:37;101105.50;;;15.08;96.33
3444;BME280;1736;52.068;6.968;2023-05-23T00:39:06;101109.22;;;14.97;96.59
3444;BME280;1736;52.068;6.968;2023-05-23T00:41:32;101111.75;;;14.99;96.02
3444;BME280;1736;52.068;6.968;2023-05-23T00:43:59;101104.41;;;15.01;96.22
3444;BME280;1736;52.068;6.968;2023-05-23T00:46:26;101108.06;;;15.00;96.42
3444;BME280;1736;52.068;6.968;2023-05-23T00:48:54;101109.78;;;14.91;97.11
3444;BME280;1736;52.068;6.968;2023-05-23T00:51:21;101112.28;;;15.02;97.02
3444;BME280;1736;52.068;6.968;2023-05-23T00:53:48;101116.50;;;14.95;97.07
3444;BME280;1736;52.068;6.968;2023-05-23T00:56:14;101112.59;;;14.90;97.92
3444;BME280;1736;52.068;6.968;2023-05-23T00:58:41;101109.22;;;14.97;98.13
3444;BME280;1736;52.068;6.968;2023-05-23T01:01:07;101111.56;;;15.00;97.96
3444;BME280;1736;52.068;6.968;2023-05-23T01:03:34;101111.41;;;15.02;98.41
3444;BME280;1736;52.068;6.968;2023-05-23T01:06:02;101106.38;;;14.99;98.43
3444;BME280;1736;52.068;6.968;2023-05-23T01:08:28;101108.88;;;15.00;98.04
3444;BME280;1736;52.068;6.968;2023-05-23T01:10:57;101101.06;;;14.89;99.13
3444;BME280;1736;52.068;6.968;2023-05-23T01:13:32;101121.31;;;14.92;99.91
3444;BME280;1736;52.068;6.968;2023-05-23T01:16:03;101110.78;;;14.81;100.00
3444;BME280;1736;52.068;6.968;2023-05-23T01:18:35;101117.94;;;14.80;100.00
3444;BME280;1736;52.068;6.968;2023-05-23T01:21:06;101121.06;;;14.85;100.00
3444;BME280;1736;52.068;6.968;2023-05-23T01:24:06;101119.53;;;14.83;100.00
3444;BME280;1736;52.068;6.968;2023-05-23T01:26:56;101126.69;;;14.82;100.00
3444;BME280;1736;52.068;6.968;2023-05-23T01:29:31;101126.13;;;14.79;100.00
3444;BME280;1736;52.068;6.968;2023-05-23T01:32:00;101129.22;;;14.74;100.00
3444;BME280;1736;52.068;6.968;2023-05-23T01:34:27;101123.03;;;14.74;100.00
3444;BME280;1736;52.068;6.968;2023-05-23T01:36:55;101134.44;;;14.66;100.00
3444;BME280;1736;52.068;6.968;2023-05-23T01:39:22;101128.69;;;14.71;100.00
3444;BME280;1736;52.068;6.968;2023-05-23T01:41:50;101133.78;;;14.64;100.00
3444;BME280;1736;52.068;6.968;2023-05-23T01:44:17;101133.47;;;14.58;100.00
3444;BME280;1736;52.068;6.968;2023-05-23T01:46:46;101141.06;;;14.62;100.00
3444;BME280;1736;52.068;6.968;2023-05-23T01:49:14;101135.31;;;14.67;100.00
3444;BME280;1736;52.068;6.968;2023-05-23T01:51:42;101138.25;;;14.64;100.00
3444;BME280;1736;52.068;6.968;2023-05-23T01:54:08;101144.72;;;14.61;100.00
3444;BME280;1736;52.068;6.968;2023-05-23T01:56:35;101135.19;;;14.59;100.00
3444;BME280;1736;52.068;6.968;2023-05-23T01:59:02;101144.88;;;14.60;100.00
3444;BME280;1736;52.068;6.968;2023-05-23T02:01:28;101153.75;;;14.51;100.00
3444;BME280;1736;52.068;6.968;2023-05-23T02:03:56;101147.41;;;14.52;100.00
3444;BME280;1736;52.068;6.968;2023-05-23T02:06:23;101148.94;;;14.35;100.00
3444;BME280;1736;52.068;6.968;2023-05-23T02:08:49;101141.09;;;14.34;100.00
3444;BME280;1736;52.068;6.968;2023-05-23T02:11:16;101149.53;;;14.39;100.00
3444;BME280;1736;52.068;6.968;2023-05-23T02:13:42;101158.81;;;14.35;100.00
3444;BME280;1736;52.068;6.968;2023-05-23T02:16:09;101160.06;;;14.40;100.00
3444;BME280;1736;52.068;6.968;2023-05-23T02:18:35;101164.97;;;14.35;100.00
3444;BME280;1736;52.068;6.968;2023-05-23T02:21:03;101167.63;;;14.35;100.00
3444;BME280;1736;52.068;6.968;2023-05-23T02:23:30;101173.50;;;14.20;100.00
3444;BME280;1736;52.068;6.968;2023-05-23T02:25:56;101164.94;;;14.16;100.00
3444;BME280;1736;52.068;6.968;2023-05-23T02:28:23;101172.25;;;14.14;100.00
3444;BME280;1736;52.068;6.968;2023-05-23T02:30:49;101175.75;;;14.05;100.00
3444;BME280;1736;52.068;6.968;2023-05-23T02:33:16;101173.50;;;13.91;100.00
3444;BME280;1736;52.068;6.968;2023-05-23T02:35:43;101176.66;;;13.76;100.00
3444;BME280;1736;52.068;6.968;2023-05-23T02:38:11;101169.63;;;13.65;100.00
3444;BME280;1736;52.068;6.968;2023-05-23T02:40:38;101188.41;;;13.64;100.00
3444;BME280;1736;52.068;6.968;2023-05-23T02:43:04;101182.53;;;13.60;100.00
3444;BME280;1736;52.068;6.968;2023-05-23T02:45:31;101178.56;;;13.55;100.00
3444;BME280;1736;52.068;6.968;2023-05-23T02:47:57;101181.97;;;13.57;100.00
3444;BME280;1736;52.068;6.968;2023-05-23T02:50:24;101185.88;;;13.53;100.00
3444;BME280;1736;52.068;6.968;2023-05-23T02:52:50;101189.25;;;13.55;100.00
3444;BME280;1736;52.068;6.968;2023-05-23T02:55:18;101190.66;;;13.59;100.00
3444;BME280;1736;52.068;6.968;2023-05-23T02:57:45;101187.28;;;13.57;100.00
3444;BME280;1736;52.068;6.968;2023-05-23T03:00:12;101181.66;;;13.60;100.00
3444;BME280;1736;52.068;6.968;2023-05-23T03:02:39;101187.28;;;13.57;100.00
3444;BME280;1736;52.068;6.968;2023-05-23T03:05:07;101188.00;;;13.59;100.00
3444;BME280;1736;52.068;6.968;2023-05-23T03:07:34;101187.13;;;13.58;100.00
3444;BME280;1736;52.068;6.968;2023-05-23T03:10:00;101194.47;;;13.66;100.00
3444;BME280;1736;52.068;6.968;2023-05-23T03:12:28;101201.72;;;13.54;100.00
3444;BME280;1736;52.068;6.968;2023-05-23T03:14:55;101197.22;;;13.55;100.00
3444;BME280;1736;52.068;6.968;2023-05-23T03:17:23;101200.97;;;13.43;100.00
3444;BME280;1736;52.068;6.968;2023-05-23T03:19:50;101202.81;;;13.42;100.00
3444;BME280;1736;52.068;6.968;2023-05-23T03:22:17;101206.03;;;13.46;100.00
3444;BME280;1736;52.068;6.968;2023-05-23T03:24:43;101196.69;;;13.51;100.00
3444;BME280;1736;52.068;6.968;2023-05-23T03:27:10;101197.22;;;13.55;100.00
3444;BME280;1736;52.068;6.968;2023-05-23T03:29:37;101200.03;;;13.53;100.00
3444;BME280;1736;52.068;6.968;2023-05-23T03:32:05;101206.75;;;13.48;100.00
3444;BME280;1736;52.068;6.968;2023-05-23T03:34:31;101208.00;;;13.44;100.00
3444;BME280;1736;52.068;6.968;2023-05-23T03:36:58;101208.72;;;13.46;100.00
3444;BME280;1736;52.068;6.968;2023-05-23T03:39:25;101205.16;;;13.36;100.00
3444;BME280;1736;52.068;6.968;2023-05-23T03:41:51;101198.00;;;13.36;100.00
3444;BME280;1736;52.068;6.968;2023-05-23T03:44:17;101203.91;;;13.40;100.00
3444;BME280;1736;52.068;6.968;2023-05-23T03:46:45;101207.03;;;13.45;100.00
3444;BME280;1736;52.068;6.968;2023-05-23T03:49:12;101203.38;;;13.46;100.00
3444;BME280;1736;52.068;6.968;2023-05-23T03:51:39;101206.03;;;13.46;100.00
3444;BME280;1736;52.068;6.968;2023-05-23T03:54:05;101207.72;;;13.47;100.00
3444;BME280;1736;52.068;6.968;2023-05-23T03:56:32;101217.22;;;13.40;100.00
3444;BME280;1736;52.068;6.968;2023-05-23T03:58:58;101216.59;;;13.47;100.00
3444;BME280;1736;52.068;6.968;2023-05-23T04:01:25;101217.53;;;13.46;100.00
3444;BME280;1736;52.068;6.968;2023-05-23T04:03:53;101226.38;;;13.47;100.00
3444;BME280;1736;52.068;6.968;2023-05-23T04:06:20;101217.97;;;13.42;100.00
3444;BME280;1736;52.068;6.968;2023-05-23T04:08:47;101225.97;;;13.42;100.00
3444;BME280;1736;52.068;6.968;2023-05-23T04:11:13;101219.75;;;13.41;100.00
3444;BME280;1736;52.068;6.968;2023-05-23T04:13:41;101226.94;;;13.41;100.00
3444;BME280;1736;52.068;6.968;2023-05-23T04:16:09;101227.91;;;13.40;100.00
3444;BME280;1736;52.068;6.968;2023-05-23T04:18:36;101238.34;;;13.52;100.00
3444;BME280;1736;52.068;6.968;2023-05-23T04:21:04;101239.22;;;13.53;100.00
3444;BME280;1736;52.068;6.968;2023-05-23T04:23:31;101247.91;;;13.55;100.00
3444;BME280;1736;52.068;6.968;2023-05-23T04:25:57;101241.50;;;13.37;100.00
3444;BME280;1736;52.068;6.968;2023-05-23T04:28:25;101246.56;;;13.40;100.00
3444;BME280;1736;52.068;6.968;2023-05-23T04:30:51;101249.69;;;13.45;100.00
3444;BME280;1736;52.068;6.968;2023-05-23T04:33:18;101252.06;;;13.48;100.00
3444;BME280;1736;52.068;6.968;2023-05-23T04:35:44;101260.78;;;13.50;100.00
3444;BME280;1736;52.068;6.968;2023-05-23T04:38:12;101255.03;;;13.45;100.00
3444;BME280;1736;52.068;6.968;2023-05-23T04:40:39;101266.31;;;13.37;100.00
3444;BME280;1736;52.068;6.968;2023-05-23T04:43:05;101274.00;;;13.31;100.00
3444;BME280;1736;52.068;6.968;2023-05-23T04:45:33;101274.81;;;13.22;100.00
3444;BME280;1736;52.068;6.968;2023-05-23T04:48:00;101273.91;;;13.12;100.00
3444;BME280;1736;52.068;6.968;2023-05-23T04:50:27;101281.03;;;13.11;100.00
3444;BME280;1736;52.068;6.968;2023-05-23T04:52:57;101285.81;;;13.08;100.00
3444;BME280;1736;52.068;6.968;2023-05-23T04:55:25;101288.19;;;13.11;100.00
3444;BME280;1736;52.068;6.968;2023-05-23T04:57:51;101286.31;;;13.02;100.00
3444;BME280;1736;52.068;6.968;2023-05-23T05:00:18;101297.47;;;12.96;100.00
3444;BME280;1736;52.068;6.968;2023-05-23T05:02:45;101291.28;;;12.95;100.00
3444;BME280;1736;52.068;6.968;2023-05-23T05:05:11;101295.53;;;12.98;100.00
3444;BME280;1736;52.068;6.968;2023-05-23T05:07:38;101304.00;;;12.92;100.00
3444;BME280;1736;52.068;6.968;2023-05-23T05:10:05;101302.59;;;12.88;100.00
3444;BME280;1736;52.068;6.968;2023-05-23T05:12:34;101301.00;;;12.85;100.00
3444;BME280;1736;52.068;6.968;2023-05-23T05:15:02;101305.09;;;12.89;100.00
3444;BME280;1736;52.068;6.968;2023-05-23T05:17:28;101299.91;;;12.88;100.00
3444;BME280;1736;52.068;6.968;2023-05-23T05:19:55;101317.59;;;12.89;100.00
3444;BME280;1736;52.068;6.968;2023-05-23T05:22:22;101319.50;;;12.87;100.00
3444;BME280;1736;52.068;6.968;2023-05-23T05:24:49;101318.41;;;12.89;100.00
3444;BME280;1736;52.068;6.968;2023-05-23T05:27:16;101320.47;;;12.97;100.00
3444;BME280;1736;52.068;6.968;2023-05-23T05:29:44;101324.09;;;12.96;100.00
3444;BME280;1736;52.068;6.968;2023-05-23T05:32:17;101327.50;;;12.98;100.00
3444;BME280;1736;52.068;6.968;2023-05-23T05:34:44;101330.03;;;12.99;100.00
3444;BME280;1736;52.068;6.968;2023-05-23T05:37:10;101335.69;;;12.95;100.00
3444;BME280;1736;52.068;6.968;2023-05-23T05:39:38;101339.97;;;12.97;100.00
3444;BME280;1736;52.068;6.968;2023-05-23T05:42:05;101345.78;;;13.02;100.00
3444;BME280;1736;52.068;6.968;2023-05-23T05:44:31;101346.03;;;12.99;100.00
3444;BME280;1736;52.068;6.968;2023-05-23T05:46:59;101343.25;;;13.01;100.00
3444;BME280;1736;52.068;6.968;2023-05-23T05:49:26;101345.16;;;12.99;100.00
3444;BME280;1736;52.068;6.968;2023-05-23T05:51:52;101352.22;;;13.00;100.00
3444;BME280;1736;52.068;6.968;2023-05-23T05:54:19;101359.56;;;13.07;100.00
3444;BME280;1736;52.068;6.968;2023-05-23T05:56:45;101356.75;;;13.09;100.00
3444;BME280;1736;52.068;6.968;2023-05-23T05:59:12;101362.59;;;13.03;100.00
3444;BME280;1736;52.068;6.968;2023-05-23T06:01:39;101363.31;;;13.05;100.00
3444;BME280;1736;52.068;6.968;2023-05-23T06:04:07;101366.56;;;13.08;100.00
3444;BME280;1736;52.068;6.968;2023-05-23T06:06:33;101365.22;;;13.14;100.00
3444;BME280;1736;52.068;6.968;2023-05-23T06:09:00;101375.00;;;13.13;100.00
3444;BME280;1736;52.068;6.968;2023-05-23T06:11:26;101366.97;;;13.24;100.00
3444;BME280;1736;52.068;6.968;2023-05-23T06:13:52;101373.66;;;13.19;100.00
3444;BME280;1736;52.068;6.968;2023-05-23T06:16:19;101386.50;;;13.25;100.00
3444;BME280;1736;52.068;6.968;2023-05-23T06:18:45;101382.19;;;13.13;100.00
3444;BME280;1736;52.068;6.968;2023-05-23T06:21:20;101403.03;;;13.08;100.00
3444;BME280;1736;52.068;6.968;2023-05-23T06:23:46;101382.69;;;13.07;100.00
3444;BME280;1736;52.068;6.968;2023-05-23T06:26:19;101394.78;;;13.11;100.00
3444;BME280;1736;52.068;6.968;2023-05-23T06:28:46;101396.41;;;13.23;100.00
3444;BME280;1736;52.068;6.968;2023-05-23T06:31:12;101401.81;;;13.12;100.00
3444;BME280;1736;52.068;6.968;2023-05-23T06:33:39;101414.66;;;13.07;100.00
3444;BME280;1736;52.068;6.968;2023-05-23T06:36:07;101407.53;;;13.07;100.00
3444;BME280;1736;52.068;6.968;2023-05-23T06:38:35;101402.31;;;12.95;100.00
3444;BME280;1736;52.068;6.968;2023-05-23T06:41:01;101412.03;;;12.85;100.00
3444;BME280;1736;52.068;6.968;2023-05-23T06:43:28;101417.72;;;12.91;100.00
3444;BME280;1736;52.068;6.968;2023-05-23T06:46:01;101411.78;;;12.99;100.00
3444;BME280;1736;52.068;6.968;2023-05-23T06:48:28;101415.63;;;12.95;99.63
3444;BME280;1736;52.068;6.968;2023-05-23T06:50:54;101413.50;;;13.00;99.62
3444;BME280;1736;52.068;6.968;2023-05-23T06:53:21;101418.06;;;12.98;100.00
3444;BME280;1736;52.068;6.968;2023-05-23T06:55:49;101421.94;;;13.05;100.00
3444;BME280;1736;52.068;6.968;2023-05-23T06:58:15;101422.16;;;13.13;100.00
3444;BME280;1736;52.068;6.968;2023-05-23T07:00:42;101432.84;;;12.91;100.00
3444;BME280;1736;52.068;6.968;2023-05-23T07:03:08;101433.09;;;12.88;100.00
3444;BME280;1736;52.068;6.968;2023-05-23T07:05:35;101430.94;;;12.82;100.00
3444;BME280;1736;52.068;6.968;2023-05-23T07:08:01;101439.66;;;12.73;100.00
3444;BME280;1736;52.068;6.968;2023-05-23T07:10:28;101439.19;;;12.57;100.00
3444;BME280;1736;52.068;6.968;2023-05-23T07:12:56;101438.34;;;12.56;100.00
3444;BME280;1736;52.068;6.968;2023-05-23T07:15:22;101450.31;;;12.51;100.00
3444;BME280;1736;52.068;6.968;2023-05-23T07:17:49;101440.06;;;12.35;100.00
3444;BME280;1736;52.068;6.968;2023-05-23T07:20:15;101444.78;;;12.43;100.00
3444;BME280;1736;52.068;6.968;2023-05-23T07:22:42;101449.84;;;12.57;100.00
3444;BME280;1736;52.068;6.968;2023-05-23T07:25:09;101450.56;;;12.59;100.00
3444;BME280;1736;52.068;6.968;2023-05-23T07:27:36;101450.31;;;12.73;100.00
3444;BME280;1736;52.068;6.968;2023-05-23T07:30:05;101449.22;;;12.64;99.96
3444;BME280;1736;52.068;6.968;2023-05-23T07:32:33;101449.50;;;12.61;100.00
3444;BME280;1736;52.068;6.968;2023-05-23T07:35:07;101450.78;;;12.67;100.00
3444;BME280;1736;52.068;6.968;2023-05-23T07:37:33;101449.34;;;12.63;100.00
3444;BME280;1736;52.068;6.968;2023-05-23T07:40:07;101456.75;;;12.48;99.75
3444;BME280;1736;52.068;6.968;2023-05-23T07:42:34;101472.97;;;12.45;99.69
3444;BME280;1736;52.068;6.968;2023-05-23T07:45:01;101476.94;;;12.29;99.18
3444;BME280;1736;52.068;6.968;2023-05-23T07:47:29;101473.31;;;12.30;99.60
3444;BME280;1736;52.068;6.968;2023-05-23T07:49:55;101477.94;;;12.39;98.61
3444;BME280;1736;52.068;6.968;2023-05-23T07:52:23;101487.38;;;12.32;98.46
3444;BME280;1736;52.068;6.968;2023-05-23T07:54:49;101498.59;;;12.35;97.92
3444;BME280;1736;52.068;6.968;2023-05-23T07:57:16;101508.19;;;12.27;97.13
3444;BME280;1736;52.068;6.968;2023-05-23T07:59:42;101491.25;;;12.39;96.67
3444;BME280;1736;52.068;6.968;2023-05-23T08:02:09;101507.44;;;12.36;96.07
3444;BME280;1736;52.068;6.968;2023-05-23T08:04:36;101500.94;;;12.40;95.59
3444;BME280;1736;52.068;6.968;2023-05-23T08:07:04;101529.22;;;12.19;95.01
3444;BME280;1736;52.068;6.968;2023-05-23T08:09:32;101521.72;;;12.24;94.51
3444;BME280;1736;52.068;6.968;2023-05-23T08:11:59;101515.22;;;12.39;94.45
3444;BME280;1736;52.068;6.968;2023-05-23T08:14:25;101531.38;;;12.25;93.21
3444;BME280;1736;52.068;6.968;2023-05-23T08:16:52;101528.00;;;12.34;93.20
3444;BME280;1736;52.068;6.968;2023-05-23T08:19:18;101537.72;;;12.35;93.51
3444;BME280;1736;52.068;6.968;2023-05-23T08:21:46;101532.22;;;12.14;93.38
3444;BME280;1736;52.068;6.968;2023-05-23T08:24:12;101533.28;;;12.12;93.26
3444;BME280;1736;52.068;6.968;2023-05-23T08:26:39;101541.25;;;12.01;92.40
3444;BME280;1736;52.068;6.968;2023-05-23T08:29:06;101543.94;;;12.12;93.00
3444;BME280;1736;52.068;6.968;2023-05-23T08:31:33;101542.69;;;12.05;91.69
3444;BME280;1736;52.068;6.968;2023-05-23T08:34:00;101549.22;;;12.01;92.34
3444;BME280;1736;52.068;6.968;2023-05-23T08:36:26;101551.81;;;12.13;91.81
3444;BME280;1736;52.068;6.968;2023-05-23T08:38:54;101558.75;;;12.27;90.06
3444;BME280;1736;52.068;6.968;2023-05-23T08:41:22;101550.69;;;12.61;88.44
3444;BME280;1736;52.068;6.968;2023-05-23T08:43:49;101552.25;;;12.97;86.12
3444;BME280;1736;52.068;6.968;2023-05-23T08:46:15;101554.31;;;13.58;83.34
3444;BME280;1736;52.068;6.968;2023-05-23T08:48:47;101546.56;;;13.55;81.42
3444;BME280;1736;52.068;6.968;2023-05-23T08:51:16;101556.88;;;13.80;79.79
3444;BME280;1736;52.068;6.968;2023-05-23T08:53:45;101563.31;;;13.57;79.38
3444;BME280;1736;52.068;6.968;2023-05-23T08:56:14;101564.06;;;13.79;79.21
3444;BME280;1736;52.068;6.968;2023-05-23T08:58:42;101557.16;;;13.77;79.44
3444;BME280;1736;52.068;6.968;2023-05-23T09:01:08;101566.56;;;14.12;77.98
3444;BME280;1736;52.068;6.968;2023-05-23T09:03:36;101564.31;;;13.97;78.06
3444;BME280;1736;52.068;6.968;2023-05-23T09:06:05;101570.84;;;14.04;77.76
3444;BME280;1736;52.068;6.968;2023-05-23T09:08:32;101575.28;;;13.94;77.67
3444;BME280;1736;52.068;6.968;2023-05-23T09:10:59;101577.47;;;13.57;78.85
3444;BME280;1736;52.068;6.968;2023-05-23T09:13:28;101580.59;;;13.62;78.82
3444;BME280;1736;52.068;6.968;2023-05-23T09:15:56;101575.88;;;13.66;77.78
3444;BME280;1736;52.068;6.968;2023-05-23T09:18:24;101583.69;;;14.10;76.41
3444;BME280;1736;52.068;6.968;2023-05-23T09:20:51;101589.19;;;14.29;74.77
3444;BME280;1736;52.068;6.968;2023-05-23T09:23:17;101579.88;;;14.23;74.55
3444;BME280;1736;52.068;6.968;2023-05-23T09:25:45;101587.53;;;14.17;74.49
3444;BME280;1736;52.068;6.968;2023-05-23T09:28:12;101594.16;;;14.02;75.18
3444;BME280;1736;52.068;6.968;2023-05-23T09:30:40;101579.59;;;13.74;76.07
3444;BME280;1736;52.068;6.968;2023-05-23T09:33:06;101580.69;;;13.72;77.41
3444;BME280;1736;52.068;6.968;2023-05-23T09:35:33;101591.69;;;14.10;76.76
3444;BME280;1736;52.068;6.968;2023-05-23T09:37:59;101594.44;;;13.88;76.68
3444;BME280;1736;52.068;6.968;2023-05-23T09:40:30;101602.09;;;13.92;77.16
3444;BME280;1736;52.068;6.968;2023-05-23T09:43:01;101597.28;;;14.07;76.10
3444;BME280;1736;52.068;6.968;2023-05-23T09:45:29;101602.22;;;13.91;77.00
3444;BME280;1736;52.068;6.968;2023-05-23T09:47:57;101607.22;;;13.84;77.86
3444;BME280;1736;52.068;6.968;2023-05-23T09:50:29;101609.06;;;13.73;78.68
3444;BME280;1736;52.068;6.968;2023-05-23T09:52:57;101611.16;;;13.58;78.36
3444;BME280;1736;52.068;6.968;2023-05-23T09:55:24;101606.91;;;13.56;78.25
3444;BME280;1736;52.068;6.968;2023-05-23T09:57:52;101607.38;;;13.72;75.93
3444;BME280;1736;52.068;6.968;2023-05-23T10:00:22;101617.09;;;14.04;74.06
3444;BME280;1736;52.068;6.968;2023-05-23T10:02:54;101620.28;;;14.30;71.23
3444;BME280;1736;52.068;6.968;2023-05-23T10:05:33;101625.13;;;14.25;71.00
3444;BME280;1736;52.068;6.968;2023-05-23T10:08:07;101621.88;;;14.42;70.18
3444;BME280;1736;52.068;6.968;2023-05-23T10:13:34;101613.28;;;14.38;70.73
3444;BME280;1736;52.068;6.968;2023-05-23T10:16:07;101618.38;;;14.41;69.71
3444;BME280;1736;52.068;6.968;2023-05-23T10:18:39;101621.63;;;14.45;68.98
3444;BME280;1736;52.068;6.968;2023-05-23T10:21:11;101626.66;;;14.59;69.10
3444;BME280;1736;52.068;6.968;2023-05-23T10:23:41;101628.53;;;14.27;68.95
3444;BME280;1736;52.068;6.968;2023-05-23T10:26:08;101630.16;;;14.59;69.02
3444;BME280;1736;52.068;6.968;2023-05-23T10:28:37;101635.75;;;14.77;67.74
3444;BME280;1736;52.068;6.968;2023-05-23T10:31:04;101632.44;;;14.64;66.46
3444;BME280;1736;52.068;6.968;2023-05-23T10:33:35;101636.28;;;14.71;66.62
3444;BME280;1736;52.068;6.968;2023-05-23T10:36:11;101636.59;;;14.77;66.71
3444;BME280;1736;52.068;6.968;2023-05-23T10:38:42;101637.09;;;14.92;64.74
3444;BME280;1736;52.068;6.968;2023-05-23T10:41:15;101635.69;;;14.67;65.56
3444;BME280;1736;52.068;6.968;2023-05-23T10:43:47;101637.91;;;14.83;65.55
3444;BME280;1736;52.068;6.968;2023-05-23T10:46:19;101627.22;;;15.13;64.50
3444;BME280;1736;52.068;6.968;2023-05-23T10:48:45;101631.44;;;15.15;64.21
3444;BME280;1736;52.068;6.968;2023-05-23T10:51:14;101638.31;;;15.39;62.58
3444;BME280;1736;52.068;6.968;2023-05-23T10:53:42;101630.22;;;15.78;61.49
3444;BME280;1736;52.068;6.968;2023-05-23T10:56:10;101633.88;;;15.68;60.14
3444;BME280;1736;52.068;6.968;2023-05-23T10:58:43;101635.13;;;15.54;60.18
3444;BME280;1736;52.068;6.968;2023-05-23T11:01:12;101629.38;;;15.78;59.35
3444;BME280;1736;52.068;6.968;2023-05-23T11:03:48;101627.28;;;15.81;57.74
3444;BME280;1736;52.068;6.968;2023-05-23T11:06:29;101631.06;;;15.69;58.21
3444;BME280;1736;52.068;6.968;2023-05-23T11:09:01;101632.31;;;15.56;58.27
3444;BME280;1736;52.068;6.968;2023-05-23T11:11:59;101628.81;;;15.74;57.16
3444;BME280;1736;52.068;6.968;2023-05-23T11:14:31;101630.78;;;15.82;56.08
3444;BME280;1736;52.068;6.968;2023-05-23T11:16:59;101624.06;;;15.97;55.00
3444;BME280;1736;52.068;6.968;2023-05-23T11:19:26;101626.88;;;16.43;54.29
3444;BME280;1736;52.068;6.968;2023-05-23T11:21:57;101618.00;;;16.23;55.90
3444;BME280;1736;52.068;6.968;2023-05-23T11:24:48;101625.56;;;16.37;56.57
3444;BME280;1736;52.068;6.968;2023-05-23T11:27:30;101626.56;;;16.65;55.09
3444;BME280;1736;52.068;6.968;2023-05-23T11:30:03;101630.56;;;16.42;55.83
3444;BME280;1736;52.068;6.968;2023-05-23T11:32:32;101628.56;;;16.34;54.00
3444;BME280;1736;52.068;6.968;2023-05-23T11:34:59;101624.59;;;16.57;53.19
3444;BME280;1736;52.068;6.968;2023-05-23T11:37:28;101625.75;;;16.26;54.85
3444;BME280;1736;52.068;6.968;2023-05-23T11:39:55;101630.94;;;16.37;51.54
3444;BME280;1736;52.068;6.968;2023-05-23T11:42:22;101641.81;;;16.17;51.07
3444;BME280;1736;52.068;6.968;2023-05-23T11:44:49;101631.09;;;16.45;51.94
3444;BME280;1736;52.068;6.968;2023-05-23T11:47:16;101649.41;;;16.40;51.58
3444;BME280;1736;52.068;6.968;2023-05-23T11:49:43;101638.19;;;16.46;53.03
3444;BME280;1736;52.068;6.968;2023-05-23T11:52:11;101641.81;;;16.64;52.17
3444;BME280;1736;52.068;6.968;2023-05-23T11:54:40;101653.66;;;16.52;51.37
3444;BME280;1736;52.068;6.968;2023-05-23T11:57:07;101638.38;;;16.81;52.84
3444;BME280;1736;52.068;6.968;2023-05-23T11:59:34;101642.91;;;16.81;51.75
3444;BME280;1736;52.068;6.968;2023-05-23T12:02:01;101648.28;;;16.71;52.50
3444;BME280;1736;52.068;6.968;2023-05-23T12:04:28;101642.06;;;16.71;50.71
3444;BME280;1736;52.068;6.968;2023-05-23T12:06:54;101642.03;;;16.80;51.69
3444;BME280;1736;52.068;6.968;2023-05-23T12:09:20;101638.72;;;17.05;51.59
3444;BME280;1736;52.068;6.968;2023-05-23T12:11:48;101639.28;;;17.45;50.45
3444;BME280;1736;52.068;6.968;2023-05-23T12:14:16;101640.56;;;17.41;49.65
3444;BME280;1736;52.068;6.968;2023-05-23T12:16:44;101639.44;;;17.07;48.76
3444;BME280;1736;52.068;6.968;2023-05-23T12:19:11;101648.63;;;17.41;49.34
3444;BME280;1736;52.068;6.968;2023-05-23T12:21:42;101639.28;;;17.36;47.05
3444;BME280;1736;52.068;6.968;2023-05-23T12:24:16;101645.97;;;16.95;47.54
3444;BME280;1736;52.068;6.968;2023-05-23T12:26:49;101642.97;;;16.98;49.56
3444;BME280;1736;52.068;6.968;2023-05-23T12:29:18;101635.84;;;16.80;48.98
3444;BME280;1736;52.068;6.968;2023-05-23T12:31:48;101649.97;;;16.72;48.74
3444;BME280;1736;52.068;6.968;2023-05-23T12:34:15;101639.13;;;16.64;48.70
3444;BME280;1736;52.068;6.968;2023-05-23T12:36:41;101640.28;;;16.98;47.58
3444;BME280;1736;52.068;6.968;2023-05-23T12:39:10;101638.69;;;17.15;48.67
3444;BME280;1736;52.068;6.968;2023-05-23T12:41:36;101647.69;;;17.23;46.63
3444;BME280;1736;52.068;6.968;2023-05-23T12:44:04;101642.22;;;17.15;46.91
3444;BME280;1736;52.068;6.968;2023-05-23T12:46:31;101641.28;;;17.43;46.89
3444;BME280;1736;52.068;6.968;2023-05-23T12:48:57;101648.63;;;17.41;48.60
3444;BME280;1736;52.068;6.968;2023-05-23T12:51:24;101658.84;;;17.19;48.56
3444;BME280;1736;52.068;6.968;2023-05-23T12:53:50;101650.69;;;17.11;47.61
3444;BME280;1736;52.068;6.968;2023-05-23T12:56:17;101656.97;;;16.92;47.08
3444;BME280;1736;52.068;6.968;2023-05-23T12:58:43;101652.91;;;16.79;47.43
3444;BME280;1736;52.068;6.968;2023-05-23T13:01:12;101632.19;;;16.71;47.53
3444;BME280;1736;52.068;6.968;2023-05-23T13:03:39;101649.44;;;17.05;46.68
3444;BME280;1736;52.068;6.968;2023-05-23T13:06:06;101648.63;;;17.41;47.35
3444;BME280;1736;52.068;6.968;2023-05-23T13:08:32;101651.16;;;17.33;47.18
3444;BME280;1736;52.068;6.968;2023-05-23T13:10:59;101651.88;;;17.35;46.40
3444;BME280;1736;52.068;6.968;2023-05-23T13:13:25;101654.56;;;17.35;45.80